Time;durP1;ratioP1;P1;durP2;ratioP2;P2;SDS_P1;SDS_P2;PMS_P1;PMS_P2;Temp;Humidity;BMP_temperature;BMP_pressure;BME280_temperature;BME280_humidity;BME280_pressure;Samples;Min_cycle;Max_cycle;Signal;HPM_P1;HPM_P2
2022/07/09 00:00:24;;;;;;;7.72;4.55;;;16.10;99.90;;;;;;5069248;28;20025;-92
2022/07/09 00:02:50;;;;;;;9.30;5.10;;;16.10;99.90;;;;;;5061821;28;20044;-93
2022/07/09 00:05:16;;;;;;;6.88;4.90;;;16.10;99.90;;;;;;5060126;28;20030;-93
2022/07/09 00:07:42;;;;;;;8.82;5.40;;;16.10;99.90;;;;;;5060378;28;20078;-92
2022/07/09 00:10:07;;;;;;;9.35;4.78;;;16.20;99.90;;;;;;5058997;28;20111;-92
2022/07/09 00:12:33;;;;;;;5.85;4.93;;;16.20;99.90;;;;;;5060527;28;20024;-93
2022/07/09 00:15:00;;;;;;;9.15;5.30;;;16.20;99.90;;;;;;5077959;28;20548;-92
2022/07/09 00:17:26;;;;;;;8.35;4.70;;;16.20;99.90;;;;;;5059638;28;20021;-93
2022/07/09 00:19:52;;;;;;;7.50;5.22;;;16.20;99.90;;;;;;5059336;28;20024;-92
2022/07/09 00:22:18;;;;;;;8.40;5.40;;;16.20;99.90;;;;;;5059944;28;20197;-92
2022/07/09 00:24:43;;;;;;;6.13;3.47;;;16.20;99.90;;;;;;5060442;28;20467;-91
2022/07/09 00:27:09;;;;;;;11.60;5.53;;;16.30;99.90;;;;;;5060413;28;20032;-95
2022/07/09 00:29:35;;;;;;;13.80;7.55;;;16.30;99.90;;;;;;5060672;28;20024;-94
2022/07/09 00:32:01;;;;;;;11.77;5.85;;;16.30;99.90;;;;;;5061106;28;20020;-93
2022/07/09 00:34:26;;;;;;;6.55;4.40;;;16.30;99.90;;;;;;5059383;28;20028;-94
2022/07/09 00:36:53;;;;;;;7.30;5.50;;;16.30;99.90;;;;;;5078682;28;20209;-91
2022/07/09 00:39:19;;;;;;;13.65;6.40;;;16.40;99.90;;;;;;5059558;28;20118;-92
2022/07/09 00:41:44;;;;;;;10.48;6.32;;;16.40;99.90;;;;;;5058251;28;20024;-93
2022/07/09 00:44:10;;;;;;;10.57;5.85;;;16.30;99.90;;;;;;5058405;28;20403;-94
2022/07/09 00:46:36;;;;;;;11.55;5.93;;;16.30;99.90;;;;;;5057290;28;20024;-92
2022/07/09 00:49:03;;;;;;;10.18;5.00;;;16.30;99.90;;;;;;5057033;28;20024;-91
2022/07/09 00:51:30;;;;;;;11.00;6.35;;;16.40;99.90;;;;;;5054159;28;20021;-93
2022/07/09 00:53:57;;;;;;;11.82;5.53;;;16.30;99.90;;;;;;5056623;28;20111;-93
2022/07/09 00:56:23;;;;;;;6.68;3.88;;;16.30;99.90;;;;;;5056870;28;20059;-93
2022/07/09 00:58:50;;;;;;;7.57;5.35;;;16.40;99.90;;;;;;5062601;28;20021;-92
2022/07/09 01:01:16;;;;;;;9.88;6.00;;;16.40;99.90;;;;;;5056882;28;20021;-93
2022/07/09 01:03:41;;;;;;;9.93;5.50;;;16.40;99.90;;;;;;5057273;28;20470;-92
2022/07/09 01:06:07;;;;;;;6.80;5.35;;;16.40;99.90;;;;;;5057526;28;20048;-91
2022/07/09 01:08:33;;;;;;;10.43;5.38;;;16.40;99.90;;;;;;5057652;28;20097;-93
2022/07/09 01:11:00;;;;;;;9.25;5.03;;;16.30;99.90;;;;;;5075309;28;20475;-94
2022/07/09 01:13:25;;;;;;;9.00;4.88;;;16.40;99.90;;;;;;5057466;28;20060;-93
2022/07/09 01:15:51;;;;;;;5.90;3.88;;;16.40;99.90;;;;;;5057002;28;20083;-94
2022/07/09 01:18:19;;;;;;;7.15;4.30;;;16.30;99.90;;;;;;5056918;28;20111;-93
2022/07/09 01:20:45;;;;;;;7.82;4.65;;;16.40;99.90;;;;;;5074448;28;20057;-92
2022/07/09 01:23:11;;;;;;;5.90;3.80;;;16.40;99.90;;;;;;5056458;28;20049;-94
2022/07/09 01:25:39;;;;;;;5.40;4.03;;;16.40;99.90;;;;;;5057270;28;20032;-94
2022/07/09 01:28:09;;;;;;;5.35;3.97;;;16.40;99.90;;;;;;5056653;28;20017;-91
2022/07/09 01:30:37;;;;;;;7.40;4.05;;;16.40;99.90;;;;;;5056739;28;20033;-92
2022/07/09 01:33:04;;;;;;;7.40;4.93;;;16.40;99.90;;;;;;5056232;28;20025;-94
2022/07/09 01:35:30;;;;;;;7.70;4.13;;;16.40;99.90;;;;;;5065397;28;20020;-92
2022/07/09 01:37:56;;;;;;;8.70;4.82;;;16.40;99.90;;;;;;5056591;28;20044;-93
2022/07/09 01:40:22;;;;;;;6.47;4.10;;;16.40;99.90;;;;;;5056968;28;20028;-94
2022/07/09 01:42:48;;;;;;;6.68;4.03;;;16.40;99.90;;;;;;5054108;28;20052;-92
2022/07/09 01:45:15;;;;;;;6.90;3.83;;;16.40;99.90;;;;;;5056816;28;20035;-94
2022/07/09 01:47:41;;;;;;;5.43;3.63;;;16.50;99.90;;;;;;5056553;28;20348;-93
2022/07/09 01:50:07;;;;;;;3.85;2.85;;;16.50;99.90;;;;;;5055773;28;20017;-92
2022/07/09 01:52:34;;;;;;;5.82;3.88;;;16.50;99.90;;;;;;5055782;28;20551;-92
2022/07/09 01:54:59;;;;;;;6.43;3.15;;;16.50;99.90;;;;;;5073987;28;20021;-92
2022/07/09 01:57:26;;;;;;;4.88;3.13;;;16.50;99.90;;;;;;5065276;28;20016;-92
2022/07/09 01:59:52;;;;;;;5.32;3.08;;;16.40;99.90;;;;;;5056981;28;20502;-92
2022/07/09 02:02:18;;;;;;;8.02;2.72;;;16.50;99.90;;;;;;5055726;28;20029;-96
2022/07/09 02:04:45;;;;;;;4.75;2.90;;;16.40;99.90;;;;;;5056166;28;20120;-93
2022/07/09 02:07:11;;;;;;;4.53;2.33;;;16.40;99.90;;;;;;5057063;28;20027;-95
2022/07/09 02:09:37;;;;;;;5.22;3.08;;;16.40;99.90;;;;;;5078439;28;20047;-92
2022/07/09 02:12:04;;;;;;;3.67;2.70;;;16.40;99.90;;;;;;5057800;28;20279;-91
2022/07/09 02:14:30;;;;;;;3.22;2.70;;;16.40;99.90;;;;;;5058435;28;20105;-92
2022/07/09 02:16:56;;;;;;;6.18;2.65;;;16.40;99.90;;;;;;5055606;28;20028;-93
2022/07/09 02:19:21;;;;;;;4.55;3.08;;;16.30;99.90;;;;;;5056075;28;20464;-91
2022/07/09 02:21:48;;;;;;;3.67;2.75;;;16.30;99.90;;;;;;5055691;28;20043;-94
2022/07/09 02:24:14;;;;;;;6.80;2.80;;;16.30;99.90;;;;;;5055891;28;20128;-92
2022/07/09 02:26:40;;;;;;;3.53;2.67;;;16.30;99.90;;;;;;5032822;28;20029;-92
2022/07/09 02:29:07;;;;;;;6.05;2.60;;;16.30;99.90;;;;;;5055474;28;20027;-93
2022/07/09 02:31:32;;;;;;;3.75;2.97;;;16.30;99.90;;;;;;5055440;28;20112;-93
2022/07/09 02:33:58;;;;;;;3.40;2.55;;;16.30;99.90;;;;;;5055811;28;20056;-92
2022/07/09 02:36:24;;;;;;;5.47;2.38;;;16.30;99.90;;;;;;5055656;28;20054;-94
2022/07/09 02:38:49;;;;;;;3.72;2.42;;;16.30;99.90;;;;;;5055974;28;20021;-94
2022/07/09 02:41:15;;;;;;;2.92;2.25;;;16.30;99.90;;;;;;5056110;28;20027;-93
2022/07/09 02:43:44;;;;;;;3.25;2.15;;;16.20;99.90;;;;;;5055850;28;20101;-94
2022/07/09 02:46:10;;;;;;;2.97;1.90;;;16.30;99.90;;;;;;5052995;28;20391;-92
2022/07/09 02:48:36;;;;;;;3.10;1.60;;;16.30;99.90;;;;;;5057384;28;20115;-93
2022/07/09 02:51:03;;;;;;;1.50;1.40;;;16.30;99.90;;;;;;5060053;28;20048;-94
2022/07/09 02:53:29;;;;;;;3.20;1.50;;;16.30;99.90;;;;;;5075959;28;20020;-93
2022/07/09 02:55:55;;;;;;;1.73;1.30;;;16.20;99.90;;;;;;5066871;28;20118;-91
2022/07/09 02:58:20;;;;;;;1.33;1.23;;;16.20;99.90;;;;;;5079811;28;20017;-91
2022/07/09 03:00:46;;;;;;;2.47;1.10;;;16.30;99.90;;;;;;5069451;28;20035;-91
2022/07/09 03:03:12;;;;;;;1.38;0.90;;;16.20;99.90;;;;;;5060466;28;20029;-94
2022/07/09 03:05:38;;;;;;;1.85;1.00;;;16.20;99.90;;;;;;5059357;28;20112;-92
2022/07/09 03:08:04;;;;;;;3.13;1.45;;;16.20;99.90;;;;;;5058717;28;20395;-92
2022/07/09 03:10:29;;;;;;;1.33;1.10;;;16.20;99.90;;;;;;5058709;28;20437;-93
2022/07/09 03:12:55;;;;;;;0.88;0.77;;;16.20;99.90;;;;;;5059205;28;20050;-92
2022/07/09 03:15:21;;;;;;;1.60;0.95;;;16.20;99.90;;;;;;5058698;28;20027;-93
2022/07/09 03:17:48;;;;;;;1.10;0.95;;;16.20;99.90;;;;;;5058750;28;20032;-94
2022/07/09 03:20:14;;;;;;;0.98;0.88;;;16.10;99.90;;;;;;5058614;28;20119;-93
2022/07/09 03:22:40;;;;;;;0.80;0.80;;;16.10;99.90;;;;;;5057952;28;20044;-92
2022/07/09 03:25:07;;;;;;;1.20;0.70;;;16.10;99.90;;;;;;5058548;28;20111;-92
2022/07/09 03:27:33;;;;;;;1.25;0.80;;;16.10;99.90;;;;;;5058584;28;20025;-94
2022/07/09 03:29:59;;;;;;;0.80;0.80;;;16.10;99.90;;;;;;5058251;28;20028;-92
2022/07/09 03:32:26;;;;;;;0.82;0.60;;;16.10;99.90;;;;;;5058134;28;20039;-91
2022/07/09 03:34:52;;;;;;;0.82;0.47;;;16.10;99.90;;;;;;5058300;28;20025;-92
2022/07/09 03:37:21;;;;;;;1.00;0.52;;;16.00;99.90;;;;;;5058099;28;20032;-92
2022/07/09 03:39:47;;;;;;;0.63;0.40;;;16.00;99.90;;;;;;5075798;28;20051;-92
2022/07/09 03:42:14;;;;;;;0.47;0.47;;;16.00;99.90;;;;;;5057932;28;20024;-91
2022/07/09 03:44:40;;;;;;;0.43;0.43;;;16.00;99.90;;;;;;5058311;28;20039;-92
2022/07/09 03:47:08;;;;;;;0.90;0.55;;;15.90;99.90;;;;;;5057520;28;20066;-91
2022/07/09 03:49:34;;;;;;;0.43;0.43;;;15.90;99.90;;;;;;5057860;28;20119;-91
2022/07/09 03:51:59;;;;;;;0.30;0.30;;;16.00;99.90;;;;;;5058158;28;20024;-93
2022/07/09 03:54:25;;;;;;;1.73;0.60;;;15.90;99.90;;;;;;5064293;28;20345;-91
2022/07/09 03:56:51;;;;;;;0.60;0.60;;;15.90;99.90;;;;;;5061643;28;20085;-91
2022/07/09 03:59:17;;;;;;;1.10;0.50;;;15.90;99.90;;;;;;5057396;28;20024;-92
2022/07/09 04:01:44;;;;;;;0.95;0.50;;;15.90;99.90;;;;;;5058269;28;20105;-91
2022/07/09 04:04:09;;;;;;;0.70;0.65;;;15.90;99.90;;;;;;5072824;28;20107;-90
2022/07/09 04:06:35;;;;;;;0.65;0.32;;;15.90;99.90;;;;;;5057742;28;20074;-90
2022/07/09 04:09:04;;;;;;;2.75;0.30;;;15.90;99.90;;;;;;5057707;28;20035;-92
2022/07/09 04:11:31;;;;;;;2.35;0.17;;;15.80;99.90;;;;;;5054704;28;20028;-92
2022/07/09 04:13:57;;;;;;;0.95;0.40;;;15.80;99.90;;;;;;5075330;28;20502;-92
2022/07/09 04:16:22;;;;;;;0.30;0.30;;;15.80;99.90;;;;;;5057394;28;20028;-91
2022/07/09 04:18:48;;;;;;;0.22;0.22;;;15.70;99.90;;;;;;5057539;28;20490;-94
2022/07/09 04:21:14;;;;;;;0.38;0.38;;;15.70;99.90;;;;;;5057235;28;20024;-93
2022/07/09 04:23:40;;;;;;;0.20;0.20;;;15.60;99.90;;;;;;5056852;28;20040;-93
2022/07/09 04:26:05;;;;;;;0.30;0.20;;;15.60;99.90;;;;;;5056843;28;20059;-93
2022/07/09 04:28:31;;;;;;;0.20;0.20;;;15.50;99.90;;;;;;5057190;28;20026;-91
2022/07/09 04:30:57;;;;;;;1.45;0.20;;;15.50;99.90;;;;;;5056980;28;20025;-91
2022/07/09 04:33:22;;;;;;;0.20;0.20;;;15.50;99.90;;;;;;5056865;28;20020;-94
2022/07/09 04:35:48;;;;;;;0.25;0.25;;;15.50;99.90;;;;;;5056955;28;20112;-93
2022/07/09 04:38:14;;;;;;;0.30;0.30;;;15.50;99.90;;;;;;5074919;28;20048;-92
2022/07/09 04:40:40;;;;;;;1.08;0.20;;;15.50;99.90;;;;;;5057081;28;20017;-92
2022/07/09 04:43:06;;;;;;;0.20;0.20;;;15.50;99.90;;;;;;5056305;28;20028;-91
2022/07/09 04:45:34;;;;;;;0.30;0.30;;;15.50;99.90;;;;;;5056961;28;20028;-93
2022/07/09 04:47:59;;;;;;;0.32;0.30;;;15.50;99.90;;;;;;5057056;28;20032;-93
2022/07/09 04:50:26;;;;;;;0.22;0.20;;;15.50;99.90;;;;;;5056503;28;20020;-92
2022/07/09 04:52:52;;;;;;;0.90;0.30;;;15.50;99.90;;;;;;5056416;28;20396;-92
2022/07/09 04:55:18;;;;;;;0.20;0.15;;;15.50;99.90;;;;;;5056909;28;20024;-92
2022/07/09 04:57:44;;;;;;;0.70;0.35;;;15.60;99.90;;;;;;5056613;28;20047;-92
2022/07/09 05:00:11;;;;;;;0.30;0.20;;;15.60;99.90;;;;;;5056829;28;20479;-93
2022/07/09 05:02:38;;;;;;;0.30;0.30;;;15.60;99.90;;;;;;5056285;28;20032;-93
2022/07/09 05:05:06;;;;;;;0.60;0.20;;;15.60;99.90;;;;;;5056537;28;20029;-94
2022/07/09 05:07:32;;;;;;;0.20;0.20;;;15.60;99.90;;;;;;5056535;28;20174;-93
2022/07/09 05:10:00;;;;;;;0.20;0.20;;;15.50;99.90;;;;;;5056632;28;20035;-92
2022/07/09 05:12:26;;;;;;;0.30;0.20;;;15.50;99.90;;;;;;5056084;28;20503;-91
2022/07/09 05:14:51;;;;;;;0.28;0.20;;;15.50;99.90;;;;;;5058796;28;20054;-92
2022/07/09 05:17:17;;;;;;;0.38;0.20;;;15.60;99.90;;;;;;5091190;28;20070;-92
2022/07/09 05:19:43;;;;;;;0.28;0.17;;;15.60;99.90;;;;;;5075023;28;20078;-91
2022/07/09 05:22:08;;;;;;;1.80;0.25;;;15.60;99.90;;;;;;5068373;28;20103;-91
2022/07/09 05:24:34;;;;;;;0.25;0.25;;;15.60;99.90;;;;;;5060850;28;20036;-90
2022/07/09 05:27:00;;;;;;;0.28;0.20;;;15.60;99.90;;;;;;5063048;28;20532;-91
2022/07/09 05:29:26;;;;;;;0.43;0.30;;;15.50;99.90;;;;;;5062531;28;20025;-93
2022/07/09 05:31:52;;;;;;;0.98;0.43;;;15.50;99.90;;;;;;5062339;28;20095;-92
2022/07/09 05:34:18;;;;;;;2.05;0.30;;;15.50;99.90;;;;;;5064677;28;20016;-92
2022/07/09 05:36:44;;;;;;;0.28;0.28;;;15.50;99.90;;;;;;5064234;28;20029;-93
2022/07/09 05:39:10;;;;;;;0.73;0.30;;;15.50;99.90;;;;;;5064227;28;20089;-92
2022/07/09 05:41:35;;;;;;;0.30;0.30;;;15.50;99.90;;;;;;5060863;28;20159;-93
2022/07/09 05:44:04;;;;;;;0.30;0.30;;;15.50;99.90;;;;;;5059810;28;20484;-91
2022/07/09 05:46:29;;;;;;;1.73;0.20;;;15.50;99.90;;;;;;5058045;28;20012;-93
2022/07/09 05:48:56;;;;;;;0.20;0.10;;;15.50;99.90;;;;;;5075407;28;20039;-92
2022/07/09 05:51:22;;;;;;;0.30;0.20;;;15.50;99.90;;;;;;5069907;28;20023;-92
2022/07/09 05:53:48;;;;;;;0.28;0.20;;;15.50;99.90;;;;;;5073985;28;20017;-93
2022/07/09 05:56:13;;;;;;;0.57;0.40;;;15.50;99.90;;;;;;5073103;28;20021;-91
2022/07/09 05:58:40;;;;;;;0.22;0.20;;;15.50;99.90;;;;;;5063175;28;20483;-93
2022/07/09 06:01:06;;;;;;;1.77;0.22;;;15.60;99.90;;;;;;5057319;28;20052;-93
2022/07/09 06:03:32;;;;;;;0.28;0.20;;;15.50;99.90;;;;;;5057411;28;20088;-93
2022/07/09 06:05:58;;;;;;;0.20;0.20;;;15.60;99.90;;;;;;5074678;28;20033;-92
2022/07/09 06:08:24;;;;;;;0.22;0.20;;;15.60;99.90;;;;;;5056278;28;20033;-92
2022/07/09 06:10:50;;;;;;;0.75;0.30;;;15.60;99.90;;;;;;5056463;28;20164;-91
2022/07/09 06:13:16;;;;;;;0.08;0.08;;;15.70;99.90;;;;;;5056728;28;20024;-91
2022/07/09 06:15:41;;;;;;;1.30;0.20;;;15.70;99.90;;;;;;5056280;28;20434;-92
2022/07/09 06:18:07;;;;;;;1.00;0.50;;;15.70;99.90;;;;;;5056343;28;20048;-91
2022/07/09 06:20:33;;;;;;;0.57;0.28;;;15.80;99.90;;;;;;5056248;28;20024;-89
2022/07/09 06:22:59;;;;;;;0.17;0.17;;;15.80;99.90;;;;;;5058402;28;20051;-90
2022/07/09 06:25:24;;;;;;;0.38;0.20;;;15.90;99.90;;;;;;5060001;28;20020;-91
2022/07/09 06:27:50;;;;;;;0.82;0.35;;;16.00;99.90;;;;;;5059733;28;20036;-91
2022/07/09 06:30:16;;;;;;;1.05;0.32;;;16.00;99.90;;;;;;5060070;28;20502;-91
2022/07/09 06:32:42;;;;;;;0.55;0.50;;;16.00;99.90;;;;;;5060296;28;20016;-92
2022/07/09 06:35:08;;;;;;;0.98;0.28;;;16.00;99.90;;;;;;5060095;28;20016;-91
2022/07/09 06:37:33;;;;;;;0.70;0.43;;;16.00;99.90;;;;;;5060017;28;20086;-92
2022/07/09 06:39:59;;;;;;;1.17;0.45;;;16.00;99.90;;;;;;5080153;28;20029;-91
2022/07/09 06:42:26;;;;;;;3.17;0.40;;;16.00;99.90;;;;;;5077395;28;20558;-90
2022/07/09 06:44:51;;;;;;;0.45;0.40;;;16.00;99.90;;;;;;5059783;28;20047;-89
2022/07/09 06:47:17;;;;;;;2.25;0.40;;;16.00;99.90;;;;;;5060114;28;20024;-89
2022/07/09 06:49:43;;;;;;;0.80;0.55;;;16.00;99.90;;;;;;5059672;28;20028;-93
2022/07/09 06:52:09;;;;;;;2.92;0.40;;;16.00;99.90;;;;;;5065069;28;20479;-93
2022/07/09 06:54:36;;;;;;;0.47;0.45;;;16.00;99.90;;;;;;5059018;28;20044;-92
2022/07/09 06:57:03;;;;;;;1.33;0.50;;;16.10;99.90;;;;;;5061265;28;20020;-92
2022/07/09 06:59:29;;;;;;;1.27;0.50;;;16.10;99.90;;;;;;5060032;28;20052;-92
2022/07/09 07:01:55;;;;;;;1.95;0.60;;;16.10;99.90;;;;;;5060115;28;20101;-94
2022/07/09 07:04:21;;;;;;;0.40;0.30;;;16.10;99.90;;;;;;5057922;28;20032;-94
2022/07/09 07:06:48;;;;;;;1.58;0.50;;;16.00;99.90;;;;;;5056153;28;20079;-95
2022/07/09 07:09:18;;;;;;;0.88;0.43;;;16.00;99.90;;;;;;5058480;28;20431;-94
2022/07/09 07:11:45;;;;;;;1.23;0.35;;;16.00;99.90;;;;;;5060081;28;20119;-94
2022/07/09 07:14:11;;;;;;;2.75;0.80;;;16.10;99.90;;;;;;5058866;28;20020;-94
2022/07/09 07:16:36;;;;;;;1.90;0.70;;;16.10;99.90;;;;;;5059702;28;20024;-95
2022/07/09 07:19:02;;;;;;;0.98;0.40;;;16.10;99.90;;;;;;5059008;28;20021;-96
2022/07/09 07:21:28;;;;;;;3.25;0.70;;;16.20;99.90;;;;;;5059252;28;20024;-94
2022/07/09 07:23:54;;;;;;;1.23;0.50;;;16.20;99.90;;;;;;5055330;28;20118;-94
2022/07/09 07:26:19;;;;;;;2.15;0.55;;;16.30;99.90;;;;;;5056244;28;20445;-94
2022/07/09 07:28:45;;;;;;;2.72;0.50;;;16.30;99.90;;;;;;5056071;28;20033;-94
2022/07/09 07:31:11;;;;;;;1.23;0.65;;;16.30;99.90;;;;;;5060331;28;20021;-95
2022/07/09 07:33:38;;;;;;;1.42;0.52;;;16.30;99.90;;;;;;5055498;28;20032;-94
2022/07/09 07:36:04;;;;;;;0.65;0.50;;;16.40;99.90;;;;;;5056375;28;20021;-95
2022/07/09 07:38:30;;;;;;;1.10;0.73;;;16.40;99.90;;;;;;5056009;28;20035;-93
2022/07/09 07:40:56;;;;;;;0.65;0.50;;;16.40;99.90;;;;;;5059644;28;20025;-94
2022/07/09 07:43:21;;;;;;;1.45;0.65;;;16.40;99.90;;;;;;5060565;28;20036;-94
2022/07/09 07:45:47;;;;;;;0.68;0.52;;;16.40;99.90;;;;;;5057877;28;20029;-95
2022/07/09 07:48:13;;;;;;;1.00;0.70;;;16.50;99.90;;;;;;5058191;28;20048;-92
2022/07/09 07:50:39;;;;;;;0.90;0.60;;;16.60;99.90;;;;;;5072859;28;20029;-91
2022/07/09 07:53:06;;;;;;;0.73;0.50;;;16.60;99.90;;;;;;5062052;28;20389;-92
2022/07/09 07:55:32;;;;;;;2.55;0.60;;;16.60;99.90;;;;;;5055659;28;20079;-92
2022/07/09 07:57:57;;;;;;;0.57;0.40;;;16.70;99.90;;;;;;5055669;28;20029;-92
2022/07/09 08:00:23;;;;;;;1.15;0.70;;;16.70;99.90;;;;;;5055955;28;20037;-92
2022/07/09 08:02:49;;;;;;;2.15;0.80;;;16.80;99.90;;;;;;5058027;28;20033;-93
2022/07/09 08:05:15;;;;;;;2.10;0.45;;;16.90;99.90;;;;;;5057232;28;20380;-93
2022/07/09 08:07:40;;;;;;;1.77;0.57;;;16.90;99.90;;;;;;5057759;28;20404;-94
2022/07/09 08:10:06;;;;;;;1.50;0.63;;;17.00;99.90;;;;;;5060799;28;20101;-92
2022/07/09 08:12:32;;;;;;;1.70;0.60;;;17.10;99.90;;;;;;5066382;28;20021;-93
2022/07/09 08:14:58;;;;;;;1.88;0.52;;;17.20;99.90;;;;;;5070663;28;20028;-91
2022/07/09 08:17:24;;;;;;;1.83;0.50;;;17.30;99.90;;;;;;5070720;28;20021;-91
2022/07/09 08:19:50;;;;;;;1.15;0.73;;;17.50;99.90;;;;;;5074710;28;20033;-91
2022/07/09 08:22:16;;;;;;;2.30;0.50;;;17.60;99.70;;;;;;5075464;28;20021;-89
2022/07/09 08:24:42;;;;;;;1.08;0.60;;;17.70;99.30;;;;;;5073556;28;20064;-91
2022/07/09 08:27:07;;;;;;;2.58;0.40;;;17.90;98.40;;;;;;5069820;28;20016;-91
2022/07/09 08:29:33;;;;;;;0.73;0.50;;;18.00;97.60;;;;;;5085038;28;20021;-90
2022/07/09 08:31:59;;;;;;;3.13;0.70;;;18.10;97.10;;;;;;5065503;28;20467;-90
2022/07/09 08:34:25;;;;;;;3.40;0.77;;;18.10;96.70;;;;;;5063361;28;20107;-90
2022/07/09 08:36:50;;;;;;;1.00;0.60;;;18.30;96.40;;;;;;5066848;28;20111;-91
2022/07/09 08:39:16;;;;;;;0.60;0.50;;;18.40;96.10;;;;;;5068393;28;20028;-91
2022/07/09 08:41:43;;;;;;;4.00;0.75;;;18.50;95.70;;;;;;5065863;28;20025;-89
2022/07/09 08:44:12;;;;;;;1.95;1.05;;;18.50;94.80;;;;;;5057973;28;20039;-90
2022/07/09 08:46:41;;;;;;;1.05;0.50;;;18.60;94.20;;;;;;5068294;28;20035;-92
2022/07/09 08:49:08;;;;;;;2.42;0.80;;;18.70;93.50;;;;;;5066511;28;20028;-93
2022/07/09 08:51:35;;;;;;;1.33;0.60;;;18.70;93.00;;;;;;5066211;28;20461;-92
2022/07/09 08:54:02;;;;;;;5.88;0.90;;;18.80;92.60;;;;;;5081996;28;20084;-91
2022/07/09 08:56:27;;;;;;;0.68;0.50;;;18.90;92.50;;;;;;5065103;28;20025;-91
2022/07/09 08:58:53;;;;;;;1.20;0.60;;;19.00;92.20;;;;;;5063236;28;20025;-91
2022/07/09 09:01:20;;;;;;;2.65;1.13;;;19.10;91.40;;;;;;5064511;28;20081;-91
2022/07/09 09:03:46;;;;;;;1.80;0.60;;;19.10;90.80;;;;;;5064956;28;20040;-92
2022/07/09 09:06:13;;;;;;;3.17;0.68;;;19.20;90.40;;;;;;5068390;28;20036;-92
2022/07/09 09:08:43;;;;;;;2.28;0.50;;;19.40;90.00;;;;;;5087002;28;20028;-90
2022/07/09 09:11:15;;;;;;;1.00;0.90;;;19.50;89.00;;;;;;5070172;28;20092;-89
2022/07/09 09:13:45;;;;;;;2.95;0.95;;;19.60;87.90;;;;;;5086926;28;20081;-89
2022/07/09 09:16:13;;;;;;;1.15;0.50;;;19.80;87.10;;;;;;5095233;28;20015;-90
2022/07/09 09:18:43;;;;;;;1.05;0.90;;;19.80;86.10;;;;;;5079029;28;20019;-85
2022/07/09 09:21:10;;;;;;;1.63;0.77;;;20.00;85.40;;;;;;5071345;28;20128;-92
2022/07/09 09:23:41;;;;;;;2.30;0.70;;;20.00;84.10;;;;;;5067679;28;20040;-91
2022/07/09 09:26:15;;;;;;;0.90;0.60;;;20.10;83.70;;;;;;5050992;28;20048;-91
2022/07/09 09:28:48;;;;;;;2.05;0.60;;;20.20;83.10;;;;;;5068787;28;20017;-93
2022/07/09 09:31:35;;;;;;;3.78;0.65;;;20.30;82.50;;;;;;5085880;28;20027;-93
2022/07/09 09:34:10;;;;;;;1.65;0.40;;;20.40;81.50;;;;;;5085177;28;20049;-89
2022/07/09 09:36:43;;;;;;;5.60;0.93;;;20.50;80.70;;;;;;5069267;28;20016;-89
2022/07/09 09:39:21;;;;;;;1.75;0.60;;;20.70;80.40;;;;;;5077860;28;20076;-86
2022/07/09 09:41:52;;;;;;;3.80;0.60;;;20.80;79.70;;;;;;5071982;28;20502;-94
2022/07/09 09:44:24;;;;;;;1.30;0.70;;;20.90;79.20;;;;;;5078495;28;20064;-89
2022/07/09 09:46:50;;;;;;;1.48;0.65;;;21.10;78.10;;;;;;5096206;28;20029;-91
2022/07/09 09:49:16;;;;;;;0.93;0.57;;;21.20;77.20;;;;;;5075055;28;20040;-92
2022/07/09 09:51:48;;;;;;;1.73;0.50;;;21.40;77.00;;;;;;5071833;28;20021;-92
2022/07/09 09:54:15;;;;;;;1.60;0.60;;;21.50;76.30;;;;;;5074225;28;20037;-93
2022/07/09 09:56:40;;;;;;;2.88;0.63;;;21.70;76.20;;;;;;5086955;28;20024;-93
2022/07/09 09:59:06;;;;;;;1.48;0.57;;;21.70;75.70;;;;;;5079539;28;20027;-94
2022/07/09 10:01:32;;;;;;;0.90;0.50;;;21.90;75.10;;;;;;5079096;28;20021;-93
2022/07/09 10:03:59;;;;;;;2.45;0.63;;;21.90;74.70;;;;;;5061794;28;20039;-93
2022/07/09 10:06:26;;;;;;;1.00;0.75;;;22.00;74.10;;;;;;5085226;28;20086;-92
2022/07/09 10:08:52;;;;;;;3.63;0.60;;;22.10;73.60;;;;;;5059817;28;20028;-92
2022/07/09 10:11:18;;;;;;;1.77;0.50;;;22.20;73.10;;;;;;5060641;28;20024;-93
2022/07/09 10:13:55;;;;;;;2.05;0.70;;;22.30;72.40;;;;;;5063414;28;20044;-94
2022/07/09 10:16:38;;;;;;;3.15;0.77;;;22.50;72.00;;;;;;5058857;28;20471;-94
2022/07/09 10:19:04;;;;;;;2.95;0.50;;;22.60;71.50;;;;;;5077976;28;20028;-92
2022/07/09 10:21:40;;;;;;;0.73;0.40;;;22.80;71.30;;;;;;5078692;28;20021;-94
2022/07/09 10:24:08;;;;;;;2.63;0.57;;;22.90;70.30;;;;;;5079366;28;20055;-93
2022/07/09 10:26:46;;;;;;;1.65;0.60;;;22.90;69.60;;;;;;5063301;28;20052;-94
2022/07/09 10:29:26;;;;;;;1.67;0.90;;;22.90;69.50;;;;;;5080663;28;20088;-92
2022/07/09 10:31:54;;;;;;;2.50;0.77;;;23.10;69.40;;;;;;5081452;28;20035;-93
2022/07/09 10:34:35;;;;;;;1.50;0.60;;;23.20;68.60;;;;;;5060784;28;20024;-93
2022/07/09 10:37:02;;;;;;;2.03;0.65;;;23.30;67.70;;;;;;5064572;28;20032;-94
2022/07/09 10:39:29;;;;;;;1.65;0.80;;;23.50;67.10;;;;;;5077248;28;20028;-93
2022/07/09 10:42:25;;;;;;;1.00;0.60;;;23.70;67.00;;;;;;5061008;28;20054;-93
2022/07/09 10:44:51;;;;;;;1.80;0.50;;;23.90;66.10;;;;;;5058380;28;20033;-94
2022/07/09 10:47:17;;;;;;;1.80;0.80;;;23.90;65.70;;;;;;5076791;28;20016;-94
2022/07/09 10:49:43;;;;;;;2.70;0.60;;;24.10;65.80;;;;;;5078227;28;20036;-92
2022/07/09 10:52:09;;;;;;;3.03;0.77;;;24.20;65.70;;;;;;5060592;28;20024;-94
2022/07/09 10:54:44;;;;;;;0.75;0.55;;;24.20;65.40;;;;;;5061280;28;20024;-91
2022/07/09 10:57:10;;;;;;;2.45;0.60;;;24.20;64.80;;;;;;5058232;28;20032;-91
2022/07/09 10:59:37;;;;;;;0.60;0.40;;;24.30;64.30;;;;;;5058527;28;20025;-95
2022/07/09 11:02:03;;;;;;;3.25;1.13;;;24.30;63.60;;;;;;5058987;28;20028;-95
2022/07/09 11:04:30;;;;;;;1.40;0.60;;;24.30;63.00;;;;;;5065996;28;20115;-96
2022/07/09 11:06:57;;;;;;;2.08;0.50;;;24.30;63.00;;;;;;5052361;28;20444;-93
2022/07/09 11:09:26;;;;;;;2.88;0.80;;;24.40;62.90;;;;;;5059975;28;20028;-93
2022/07/09 11:11:54;;;;;;;1.45;0.50;;;24.30;63.10;;;;;;5048617;28;20047;-94
2022/07/09 11:14:21;;;;;;;0.90;0.60;;;24.40;63.70;;;;;;5073249;28;20021;-89
2022/07/09 11:16:58;;;;;;;1.23;0.77;;;24.40;63.80;;;;;;5056448;28;20024;-93
2022/07/09 11:19:24;;;;;;;3.60;0.75;;;24.50;63.70;;;;;;5057079;28;20025;-93
2022/07/09 11:22:00;;;;;;;2.35;0.75;;;24.60;63.40;;;;;;5038930;28;20106;-94
2022/07/09 11:24:27;;;;;;;2.28;0.63;;;24.70;63.00;;;;;;5055717;28;20052;-94
2022/07/09 11:26:53;;;;;;;1.13;0.75;;;24.80;62.50;;;;;;5062636;28;20028;-92
2022/07/09 11:29:19;;;;;;;1.88;0.55;;;24.90;62.20;;;;;;5059043;28;20025;-94
2022/07/09 11:31:52;;;;;;;1.98;0.70;;;25.00;62.90;;;;;;5059758;28;20036;-93
2022/07/09 11:34:19;;;;;;;1.23;0.43;;;25.00;62.00;;;;;;5075519;28;20028;-93
2022/07/09 11:36:48;;;;;;;2.28;0.50;;;25.20;62.20;;;;;;5077309;28;20020;-94
2022/07/09 11:39:25;;;;;;;2.08;0.57;;;25.40;61.70;;;;;;5060918;28;20021;-94
2022/07/09 11:41:51;;;;;;;3.95;0.70;;;25.40;61.10;;;;;;5074592;28;20092;-92
2022/07/09 11:44:25;;;;;;;0.88;0.50;;;25.50;61.00;;;;;;5030956;28;20047;-93
2022/07/09 11:47:34;;;;;;;1.35;0.68;;;25.70;60.20;;;;;;5053907;28;20159;-93
2022/07/09 11:50:20;;;;;;;1.95;0.70;;;25.80;58.90;;;;;;5019175;28;20032;-94
2022/07/09 11:52:52;;;;;;;4.75;0.80;;;25.80;59.10;;;;;;5059534;28;20024;-92
2022/07/09 11:55:20;;;;;;;1.83;0.55;;;25.70;59.20;;;;;;5077698;28;20066;-95
2022/07/09 11:57:57;;;;;;;2.88;0.60;;;25.70;59.30;;;;;;5078664;28;20033;-91
2022/07/09 12:00:28;;;;;;;3.78;0.60;;;25.70;59.70;;;;;;5059560;28;20027;-94
2022/07/09 12:03:04;;;;;;;0.85;0.70;;;25.90;59.60;;;;;;5052050;28;20080;-92
2022/07/09 12:05:39;;;;;;;2.95;0.82;;;25.80;59.30;;;;;;5062141;28;20475;-94
2022/07/09 12:08:10;;;;;;;3.08;0.80;;;25.60;59.50;;;;;;5053700;28;20071;-95
2022/07/09 12:10:37;;;;;;;2.83;1.02;;;25.70;59.70;;;;;;5064057;28;20060;-94
2022/07/09 12:13:04;;;;;;;6.55;0.85;;;25.80;59.40;;;;;;5060785;28;20036;-96
2022/07/09 12:15:31;;;;;;;1.15;0.60;;;25.80;59.10;;;;;;5062281;28;20024;-93
2022/07/09 12:17:59;;;;;;;1.05;0.55;;;25.90;59.20;;;;;;5055055;28;20025;-94
2022/07/09 12:20:31;;;;;;;3.95;0.75;;;26.00;59.20;;;;;;5062008;28;20028;-92
2022/07/09 12:22:57;;;;;;;2.55;0.90;;;26.20;59.00;;;;;;5058780;28;20048;-93
2022/07/09 12:25:23;;;;;;;1.73;1.15;;;26.30;58.90;;;;;;5076992;28;20043;-92
2022/07/09 12:27:49;;;;;;;3.17;0.80;;;26.20;58.20;;;;;;5059770;28;20165;-92
2022/07/09 12:30:16;;;;;;;2.28;0.80;;;26.20;58.30;;;;;;5043585;28;20051;-91
2022/07/09 12:32:42;;;;;;;3.38;1.17;;;26.20;57.60;;;;;;5047440;28;20032;-92
2022/07/09 12:35:09;;;;;;;3.90;0.80;;;26.30;57.70;;;;;;5048082;28;20017;-93
2022/07/09 12:37:39;;;;;;;2.70;0.82;;;26.50;57.40;;;;;;5067958;28;20029;-93
2022/07/09 12:40:06;;;;;;;4.28;1.30;;;26.70;57.60;;;;;;5047037;28;20029;-91
2022/07/09 12:42:32;;;;;;;2.65;0.93;;;26.90;57.40;;;;;;5046887;28;20048;-94
2022/07/09 12:44:58;;;;;;;2.70;0.70;;;27.00;57.20;;;;;;5067105;28;20090;-94